sensor_id;sensor_type;location;lat;lon;timestamp;P1;durP1;ratioP1;P2;durP2;ratioP2
15624;SDS011;7912;51.376;6.126;2023-05-10T00:01:02;10.60;;;9.50;;
15624;SDS011;7912;51.376;6.126;2023-05-10T00:03:29;10.57;;;9.43;;
15624;SDS011;7912;51.376;6.126;2023-05-10T00:05:57;10.20;;;9.10;;
15624;SDS011;7912;51.376;6.126;2023-05-10T00:08:24;10.40;;;9.30;;
15624;SDS011;7912;51.376;6.126;2023-05-10T00:10:52;10.67;;;9.60;;
15624;SDS011;7912;51.376;6.126;2023-05-10T00:13:19;10.03;;;9.03;;
15624;SDS011;7912;51.376;6.126;2023-05-10T00:15:47;9.57;;;8.63;;
15624;SDS011;7912;51.376;6.126;2023-05-10T00:18:14;10.07;;;8.97;;
15624;SDS011;7912;51.376;6.126;2023-05-10T00:20:42;10.17;;;9.10;;
15624;SDS011;7912;51.376;6.126;2023-05-10T00:23:09;9.27;;;8.37;;
15624;SDS011;7912;51.376;6.126;2023-05-10T00:25:37;8.83;;;7.93;;
15624;SDS011;7912;51.376;6.126;2023-05-10T00:28:04;8.30;;;7.47;;
15624;SDS011;7912;51.376;6.126;2023-05-10T00:30:31;8.00;;;7.20;;
15624;SDS011;7912;51.376;6.126;2023-05-10T00:32:59;7.90;;;7.13;;
15624;SDS011;7912;51.376;6.126;2023-05-10T00:35:26;7.77;;;6.97;;
15624;SDS011;7912;51.376;6.126;2023-05-10T00:37:54;7.07;;;6.37;;
15624;SDS011;7912;51.376;6.126;2023-05-10T00:40:24;6.80;;;6.20;;
15624;SDS011;7912;51.376;6.126;2023-05-10T00:42:52;6.17;;;5.57;;
15624;SDS011;7912;51.376;6.126;2023-05-10T00:45:19;6.27;;;5.67;;
15624;SDS011;7912;51.376;6.126;2023-05-10T00:47:47;5.97;;;5.13;;
15624;SDS011;7912;51.376;6.126;2023-05-10T00:50:14;6.10;;;5.50;;
15624;SDS011;7912;51.376;6.126;2023-05-10T00:52:43;4.97;;;4.47;;
15624;SDS011;7912;51.376;6.126;2023-05-10T00:55:10;6.43;;;5.20;;
15624;SDS011;7912;51.376;6.126;2023-05-10T01:00:27;6.53;;;5.60;;
15624;SDS011;7912;51.376;6.126;2023-05-10T01:02:56;5.90;;;5.07;;
15624;SDS011;7912;51.376;6.126;2023-05-10T01:05:24;6.27;;;5.43;;
15624;SDS011;7912;51.376;6.126;2023-05-10T01:07:53;6.40;;;5.80;;
15624;SDS011;7912;51.376;6.126;2023-05-10T01:10:20;5.93;;;4.77;;
15624;SDS011;7912;51.376;6.126;2023-05-10T01:12:48;5.30;;;4.80;;
15624;SDS011;7912;51.376;6.126;2023-05-10T01:15:16;5.37;;;4.80;;
15624;SDS011;7912;51.376;6.126;2023-05-10T01:17:45;6.27;;;5.67;;
15624;SDS011;7912;51.376;6.126;2023-05-10T01:20:14;6.10;;;5.17;;
15624;SDS011;7912;51.376;6.126;2023-05-10T01:35:07;8.20;;;5.90;;
15624;SDS011;7912;51.376;6.126;2023-05-10T01:37:50;6.07;;;5.47;;
15624;SDS011;7912;51.376;6.126;2023-05-10T01:40:46;6.00;;;5.40;;
15624;SDS011;7912;51.376;6.126;2023-05-10T01:43:21;7.10;;;6.13;;
15624;SDS011;7912;51.376;6.126;2023-05-10T01:46:02;7.07;;;6.40;;
15624;SDS011;7912;51.376;6.126;2023-05-10T01:48:41;6.70;;;5.97;;
15624;SDS011;7912;51.376;6.126;2023-05-10T01:51:23;7.37;;;6.50;;
15624;SDS011;7912;51.376;6.126;2023-05-10T01:53:54;8.30;;;7.30;;
15624;SDS011;7912;51.376;6.126;2023-05-10T01:56:29;8.30;;;7.50;;
15624;SDS011;7912;51.376;6.126;2023-05-10T01:58:59;11.37;;;8.30;;
15624;SDS011;7912;51.376;6.126;2023-05-10T02:01:35;7.77;;;7.03;;
15624;SDS011;7912;51.376;6.126;2023-05-10T02:04:06;9.10;;;8.07;;
15624;SDS011;7912;51.376;6.126;2023-05-10T02:06:36;7.80;;;7.00;;
15624;SDS011;7912;51.376;6.126;2023-05-10T02:09:06;8.50;;;7.60;;
15624;SDS011;7912;51.376;6.126;2023-05-10T02:11:41;8.60;;;7.70;;
15624;SDS011;7912;51.376;6.126;2023-05-10T02:14:10;9.27;;;8.07;;
15624;SDS011;7912;51.376;6.126;2023-05-10T02:16:39;8.90;;;8.00;;
15624;SDS011;7912;51.376;6.126;2023-05-10T02:19:08;8.17;;;7.37;;
15624;SDS011;7912;51.376;6.126;2023-05-10T02:21:40;10.53;;;9.20;;
15624;SDS011;7912;51.376;6.126;2023-05-10T02:24:09;9.67;;;8.67;;
15624;SDS011;7912;51.376;6.126;2023-05-10T02:26:40;11.87;;;10.13;;
15624;SDS011;7912;51.376;6.126;2023-05-10T02:29:09;10.23;;;9.20;;
15624;SDS011;7912;51.376;6.126;2023-05-10T02:31:39;9.90;;;8.43;;
15624;SDS011;7912;51.376;6.126;2023-05-10T02:34:09;10.43;;;9.33;;
15624;SDS011;7912;51.376;6.126;2023-05-10T02:36:38;11.03;;;9.87;;
15624;SDS011;7912;51.376;6.126;2023-05-10T02:39:07;11.00;;;8.70;;
15624;SDS011;7912;51.376;6.126;2023-05-10T02:41:40;11.93;;;10.03;;
15624;SDS011;7912;51.376;6.126;2023-05-10T02:44:09;11.20;;;10.07;;
15624;SDS011;7912;51.376;6.126;2023-05-10T02:46:39;13.00;;;11.07;;
15624;SDS011;7912;51.376;6.126;2023-05-10T02:49:07;13.10;;;11.00;;
15624;SDS011;7912;51.376;6.126;2023-05-10T02:51:35;11.63;;;10.43;;
15624;SDS011;7912;51.376;6.126;2023-05-10T02:54:12;13.07;;;11.07;;
15624;SDS011;7912;51.376;6.126;2023-05-10T02:56:51;14.43;;;12.77;;
15624;SDS011;7912;51.376;6.126;2023-05-10T02:59:30;13.83;;;11.80;;
15624;SDS011;7912;51.376;6.126;2023-05-10T03:01:59;13.63;;;12.23;;
15624;SDS011;7912;51.376;6.126;2023-05-10T03:04:28;16.73;;;13.13;;
15624;SDS011;7912;51.376;6.126;2023-05-10T03:06:56;15.47;;;13.63;;
15624;SDS011;7912;51.376;6.126;2023-05-10T03:09:23;17.10;;;14.20;;
15624;SDS011;7912;51.376;6.126;2023-05-10T03:11:56;18.43;;;14.90;;
15624;SDS011;7912;51.376;6.126;2023-05-10T03:20:20;19.53;;;16.30;;
15624;SDS011;7912;51.376;6.126;2023-05-10T03:22:58;19.37;;;16.27;;
15624;SDS011;7912;51.376;6.126;2023-05-10T03:25:49;19.33;;;15.57;;
15624;SDS011;7912;51.376;6.126;2023-05-10T03:28:18;20.97;;;17.50;;
15624;SDS011;7912;51.376;6.126;2023-05-10T03:30:48;21.90;;;17.63;;
15624;SDS011;7912;51.376;6.126;2023-05-10T03:33:19;22.63;;;18.67;;
15624;SDS011;7912;51.376;6.126;2023-05-10T03:35:46;22.97;;;18.30;;
15624;SDS011;7912;51.376;6.126;2023-05-10T03:38:14;21.43;;;18.00;;
15624;SDS011;7912;51.376;6.126;2023-05-10T03:40:44;21.73;;;18.90;;
15624;SDS011;7912;51.376;6.126;2023-05-10T03:43:12;23.50;;;18.60;;
15624;SDS011;7912;51.376;6.126;2023-05-10T03:45:39;24.97;;;19.50;;
15624;SDS011;7912;51.376;6.126;2023-05-10T03:48:07;24.37;;;19.60;;
15624;SDS011;7912;51.376;6.126;2023-05-10T03:50:34;24.07;;;20.20;;
15624;SDS011;7912;51.376;6.126;2023-05-10T03:53:02;22.87;;;19.50;;
15624;SDS011;7912;51.376;6.126;2023-05-10T03:55:29;25.20;;;20.50;;
15624;SDS011;7912;51.376;6.126;2023-05-10T03:58:01;23.10;;;18.97;;
15624;SDS011;7912;51.376;6.126;2023-05-10T04:00:28;25.33;;;20.00;;
15624;SDS011;7912;51.376;6.126;2023-05-10T04:02:56;25.57;;;20.50;;
15624;SDS011;7912;51.376;6.126;2023-05-10T04:05:24;22.87;;;18.57;;
15624;SDS011;7912;51.376;6.126;2023-05-10T04:07:52;25.30;;;19.40;;
15624;SDS011;7912;51.376;6.126;2023-05-10T04:10:22;26.47;;;20.80;;
15624;SDS011;7912;51.376;6.126;2023-05-10T04:12:50;27.30;;;21.93;;
15624;SDS011;7912;51.376;6.126;2023-05-10T04:15:20;26.53;;;21.43;;
15624;SDS011;7912;51.376;6.126;2023-05-10T04:17:50;24.87;;;19.80;;
15624;SDS011;7912;51.376;6.126;2023-05-10T04:20:18;25.93;;;20.47;;
15624;SDS011;7912;51.376;6.126;2023-05-10T04:22:50;28.83;;;22.10;;
15624;SDS011;7912;51.376;6.126;2023-05-10T04:25:18;31.70;;;23.53;;
15624;SDS011;7912;51.376;6.126;2023-05-10T04:27:45;31.60;;;23.40;;
15624;SDS011;7912;51.376;6.126;2023-05-10T04:30:13;33.50;;;23.77;;
15624;SDS011;7912;51.376;6.126;2023-05-10T04:32:41;35.80;;;25.03;;
15624;SDS011;7912;51.376;6.126;2023-05-10T04:35:08;34.77;;;24.87;;
15624;SDS011;7912;51.376;6.126;2023-05-10T04:37:37;34.23;;;23.43;;
15624;SDS011;7912;51.376;6.126;2023-05-10T04:40:07;35.30;;;24.27;;
15624;SDS011;7912;51.376;6.126;2023-05-10T04:42:35;34.73;;;25.13;;
15624;SDS011;7912;51.376;6.126;2023-05-10T04:45:03;37.07;;;26.07;;
15624;SDS011;7912;51.376;6.126;2023-05-10T04:47:37;37.53;;;24.87;;
15624;SDS011;7912;51.376;6.126;2023-05-10T04:50:05;39.67;;;26.23;;
15624;SDS011;7912;51.376;6.126;2023-05-10T04:52:35;38.30;;;25.70;;
15624;SDS011;7912;51.376;6.126;2023-05-10T04:55:03;32.07;;;22.40;;
15624;SDS011;7912;51.376;6.126;2023-05-10T04:57:34;29.70;;;21.77;;
15624;SDS011;7912;51.376;6.126;2023-05-10T05:00:02;35.20;;;23.90;;
15624;SDS011;7912;51.376;6.126;2023-05-10T05:02:38;35.80;;;24.43;;
15624;SDS011;7912;51.376;6.126;2023-05-10T05:05:11;36.53;;;24.40;;
15624;SDS011;7912;51.376;6.126;2023-05-10T05:07:42;34.90;;;24.63;;
15624;SDS011;7912;51.376;6.126;2023-05-10T05:10:09;36.97;;;24.70;;
15624;SDS011;7912;51.376;6.126;2023-05-10T05:12:37;35.93;;;24.17;;
15624;SDS011;7912;51.376;6.126;2023-05-10T05:15:05;36.27;;;24.33;;
15624;SDS011;7912;51.376;6.126;2023-05-10T05:17:35;36.20;;;25.40;;
15624;SDS011;7912;51.376;6.126;2023-05-10T05:20:05;34.97;;;24.17;;
15624;SDS011;7912;51.376;6.126;2023-05-10T05:22:33;31.73;;;22.73;;
15624;SDS011;7912;51.376;6.126;2023-05-10T05:25:03;33.90;;;23.17;;
15624;SDS011;7912;51.376;6.126;2023-05-10T05:27:31;33.73;;;23.40;;
15624;SDS011;7912;51.376;6.126;2023-05-10T05:30:09;34.27;;;23.70;;
15624;SDS011;7912;51.376;6.126;2023-05-10T05:32:45;35.13;;;24.80;;
15624;SDS011;7912;51.376;6.126;2023-05-10T05:35:13;33.20;;;22.13;;
15624;SDS011;7912;51.376;6.126;2023-05-10T05:37:41;33.77;;;22.37;;
15624;SDS011;7912;51.376;6.126;2023-05-10T05:40:12;33.83;;;23.53;;
15624;SDS011;7912;51.376;6.126;2023-05-10T05:42:40;31.33;;;21.67;;
15624;SDS011;7912;51.376;6.126;2023-05-10T05:45:09;32.30;;;22.70;;
15624;SDS011;7912;51.376;6.126;2023-05-10T05:47:43;36.97;;;22.57;;
15624;SDS011;7912;51.376;6.126;2023-05-10T05:50:16;34.27;;;22.90;;
15624;SDS011;7912;51.376;6.126;2023-05-10T05:52:45;34.07;;;24.00;;
15624;SDS011;7912;51.376;6.126;2023-05-10T05:55:13;33.87;;;22.67;;
15624;SDS011;7912;51.376;6.126;2023-05-10T05:57:46;35.60;;;23.23;;
15624;SDS011;7912;51.376;6.126;2023-05-10T06:00:16;35.57;;;24.40;;
15624;SDS011;7912;51.376;6.126;2023-05-10T06:03:07;37.50;;;23.23;;
15624;SDS011;7912;51.376;6.126;2023-05-10T06:05:35;37.67;;;24.77;;
15624;SDS011;7912;51.376;6.126;2023-05-10T06:08:08;36.83;;;24.53;;
15624;SDS011;7912;51.376;6.126;2023-05-10T06:10:41;35.63;;;23.50;;
15624;SDS011;7912;51.376;6.126;2023-05-10T06:13:09;34.73;;;23.70;;
15624;SDS011;7912;51.376;6.126;2023-05-10T06:15:37;33.50;;;22.27;;
15624;SDS011;7912;51.376;6.126;2023-05-10T06:18:10;35.90;;;23.93;;
15624;SDS011;7912;51.376;6.126;2023-05-10T06:20:44;35.53;;;23.43;;
15624;SDS011;7912;51.376;6.126;2023-05-10T06:23:11;35.80;;;24.27;;
15624;SDS011;7912;51.376;6.126;2023-05-10T06:25:46;39.30;;;24.90;;
15624;SDS011;7912;51.376;6.126;2023-05-10T06:28:14;34.97;;;23.70;;
15624;SDS011;7912;51.376;6.126;2023-05-10T06:31:21;34.23;;;23.27;;
15624;SDS011;7912;51.376;6.126;2023-05-10T06:34:44;38.50;;;24.30;;
15624;SDS011;7912;51.376;6.126;2023-05-10T06:37:51;36.10;;;24.57;;
15624;SDS011;7912;51.376;6.126;2023-05-10T06:40:58;34.93;;;23.03;;
15624;SDS011;7912;51.376;6.126;2023-05-10T06:43:50;33.80;;;23.70;;
15624;SDS011;7912;51.376;6.126;2023-05-10T06:46:27;32.87;;;23.43;;
15624;SDS011;7912;51.376;6.126;2023-05-10T06:48:57;32.90;;;22.97;;
15624;SDS011;7912;51.376;6.126;2023-05-10T06:51:47;34.07;;;23.43;;
15624;SDS011;7912;51.376;6.126;2023-05-10T06:54:20;31.13;;;22.27;;
15624;SDS011;7912;51.376;6.126;2023-05-10T06:57:11;32.43;;;23.20;;
15624;SDS011;7912;51.376;6.126;2023-05-10T07:06:41;29.07;;;20.73;;
15624;SDS011;7912;51.376;6.126;2023-05-10T07:09:09;31.60;;;22.83;;
15624;SDS011;7912;51.376;6.126;2023-05-10T07:12:23;28.33;;;20.10;;
15624;SDS011;7912;51.376;6.126;2023-05-10T07:15:29;28.77;;;20.63;;
15624;SDS011;7912;51.376;6.126;2023-05-10T07:17:56;28.37;;;21.13;;
15624;SDS011;7912;51.376;6.126;2023-05-10T07:20:37;29.17;;;21.23;;
15624;SDS011;7912;51.376;6.126;2023-05-10T07:23:05;29.87;;;22.17;;
15624;SDS011;7912;51.376;6.126;2023-05-10T07:25:32;28.67;;;21.10;;
15624;SDS011;7912;51.376;6.126;2023-05-10T07:28:23;28.20;;;20.70;;
15624;SDS011;7912;51.376;6.126;2023-05-10T07:31:37;24.17;;;19.33;;
15624;SDS011;7912;51.376;6.126;2023-05-10T07:34:04;24.27;;;18.30;;
15624;SDS011;7912;51.376;6.126;2023-05-10T07:37:04;21.97;;;17.83;;
15624;SDS011;7912;51.376;6.126;2023-05-10T07:39:41;22.77;;;17.33;;
15624;SDS011;7912;51.376;6.126;2023-05-10T07:42:48;19.97;;;16.87;;
15624;SDS011;7912;51.376;6.126;2023-05-10T07:46:33;21.90;;;16.50;;
15624;SDS011;7912;51.376;6.126;2023-05-10T07:49:02;21.27;;;16.20;;
15624;SDS011;7912;51.376;6.126;2023-05-10T07:52:07;18.77;;;15.50;;
15624;SDS011;7912;51.376;6.126;2023-05-10T08:01:03;17.87;;;15.47;;
15624;SDS011;7912;51.376;6.126;2023-05-10T08:03:37;20.27;;;15.90;;
15624;SDS011;7912;51.376;6.126;2023-05-10T08:10:45;20.20;;;14.80;;
15624;SDS011;7912;51.376;6.126;2023-05-10T08:16:01;18.87;;;15.13;;
15624;SDS011;7912;51.376;6.126;2023-05-10T08:18:47;18.33;;;16.07;;
15624;SDS011;7912;51.376;6.126;2023-05-10T08:21:36;21.67;;;16.67;;
15624;SDS011;7912;51.376;6.126;2023-05-10T08:24:27;20.73;;;17.03;;
15624;SDS011;7912;51.376;6.126;2023-05-10T08:34:21;17.43;;;15.40;;
15624;SDS011;7912;51.376;6.126;2023-05-10T08:40:49;17.87;;;15.93;;
15624;SDS011;7912;51.376;6.126;2023-05-10T08:44:06;19.00;;;16.23;;
15624;SDS011;7912;51.376;6.126;2023-05-10T08:47:36;17.37;;;13.80;;
15624;SDS011;7912;51.376;6.126;2023-05-10T08:50:23;18.43;;;15.43;;
15624;SDS011;7912;51.376;6.126;2023-05-10T08:59:46;20.20;;;16.60;;
15624;SDS011;7912;51.376;6.126;2023-05-10T09:03:25;19.70;;;16.17;;
15624;SDS011;7912;51.376;6.126;2023-05-10T09:06:46;20.00;;;16.97;;
15624;SDS011;7912;51.376;6.126;2023-05-10T09:09:14;20.30;;;16.23;;
15624;SDS011;7912;51.376;6.126;2023-05-10T09:12:47;21.50;;;17.33;;
15624;SDS011;7912;51.376;6.126;2023-05-10T09:16:05;18.50;;;16.30;;
15624;SDS011;7912;51.376;6.126;2023-05-10T09:28:14;16.87;;;13.40;;
15624;SDS011;7912;51.376;6.126;2023-05-10T09:34:54;13.03;;;10.83;;
15624;SDS011;7912;51.376;6.126;2023-05-10T09:41:51;11.93;;;10.13;;
15624;SDS011;7912;51.376;6.126;2023-05-10T09:54:42;13.53;;;11.07;;
15624;SDS011;7912;51.376;6.126;2023-05-10T09:58:20;12.80;;;10.73;;
15624;SDS011;7912;51.376;6.126;2023-05-10T10:00:58;11.80;;;10.50;;
15624;SDS011;7912;51.376;6.126;2023-05-10T10:04:10;11.77;;;9.70;;
15624;SDS011;7912;51.376;6.126;2023-05-10T10:07:02;12.23;;;10.73;;
15624;SDS011;7912;51.376;6.126;2023-05-10T10:13:39;11.00;;;9.90;;
15624;SDS011;7912;51.376;6.126;2023-05-10T10:16:31;12.60;;;11.30;;
15624;SDS011;7912;51.376;6.126;2023-05-10T10:23:25;13.87;;;12.37;;
15624;SDS011;7912;51.376;6.126;2023-05-10T10:37:44;13.53;;;12.23;;
15624;SDS011;7912;51.376;6.126;2023-05-10T10:40:27;13.80;;;12.40;;
15624;SDS011;7912;51.376;6.126;2023-05-10T10:46:15;12.00;;;10.40;;
15624;SDS011;7912;51.376;6.126;2023-05-10T10:48:47;10.30;;;9.13;;
15624;SDS011;7912;51.376;6.126;2023-05-10T10:51:39;10.40;;;9.40;;
15624;SDS011;7912;51.376;6.126;2023-05-10T10:54:10;9.07;;;8.27;;
15624;SDS011;7912;51.376;6.126;2023-05-10T10:56:38;10.03;;;8.93;;
15624;SDS011;7912;51.376;6.126;2023-05-10T10:59:05;9.90;;;8.87;;
15624;SDS011;7912;51.376;6.126;2023-05-10T11:01:34;9.70;;;8.80;;
15624;SDS011;7912;51.376;6.126;2023-05-10T11:06:33;8.90;;;8.10;;
15624;SDS011;7912;51.376;6.126;2023-05-10T11:09:09;8.43;;;7.23;;
15624;SDS011;7912;51.376;6.126;2023-05-10T11:11:48;8.70;;;7.90;;
15624;SDS011;7912;51.376;6.126;2023-05-10T11:14:21;7.97;;;7.17;;
15624;SDS011;7912;51.376;6.126;2023-05-10T11:16:49;8.63;;;7.83;;
15624;SDS011;7912;51.376;6.126;2023-05-10T11:19:18;9.90;;;8.97;;
15624;SDS011;7912;51.376;6.126;2023-05-10T11:24:37;9.90;;;8.93;;
15624;SDS011;7912;51.376;6.126;2023-05-10T11:27:07;11.53;;;10.53;;
15624;SDS011;7912;51.376;6.126;2023-05-10T11:29:35;11.53;;;10.37;;
15624;SDS011;7912;51.376;6.126;2023-05-10T11:32:02;11.23;;;10.13;;
15624;SDS011;7912;51.376;6.126;2023-05-10T11:34:34;11.50;;;10.50;;
15624;SDS011;7912;51.376;6.126;2023-05-10T11:37:01;12.37;;;11.17;;
15624;SDS011;7912;51.376;6.126;2023-05-10T11:39:29;12.87;;;11.77;;
15624;SDS011;7912;51.376;6.126;2023-05-10T11:41:58;13.13;;;11.83;;
15624;SDS011;7912;51.376;6.126;2023-05-10T11:44:29;11.47;;;10.37;;
15624;SDS011;7912;51.376;6.126;2023-05-10T11:46:59;11.17;;;10.17;;
15624;SDS011;7912;51.376;6.126;2023-05-10T11:49:27;11.27;;;10.07;;
15624;SDS011;7912;51.376;6.126;2023-05-10T11:52:03;11.47;;;10.40;;
15624;SDS011;7912;51.376;6.126;2023-05-10T11:54:34;12.03;;;10.93;;
15624;SDS011;7912;51.376;6.126;2023-05-10T11:57:01;12.63;;;10.90;;
15624;SDS011;7912;51.376;6.126;2023-05-10T11:59:29;10.93;;;9.83;;
15624;SDS011;7912;51.376;6.126;2023-05-10T12:01:56;13.50;;;12.20;;
15624;SDS011;7912;51.376;6.126;2023-05-10T12:04:24;12.97;;;11.67;;
15624;SDS011;7912;51.376;6.126;2023-05-10T12:06:53;15.20;;;13.80;;
15624;SDS011;7912;51.376;6.126;2023-05-10T12:09:20;14.13;;;12.77;;
15624;SDS011;7912;51.376;6.126;2023-05-10T12:12:01;15.73;;;14.23;;
15624;SDS011;7912;51.376;6.126;2023-05-10T12:14:29;16.27;;;14.77;;
15624;SDS011;7912;51.376;6.126;2023-05-10T12:17:02;17.23;;;15.60;;
15624;SDS011;7912;51.376;6.126;2023-05-10T12:19:36;16.10;;;14.50;;
15624;SDS011;7912;51.376;6.126;2023-05-10T12:22:06;15.10;;;13.60;;
15624;SDS011;7912;51.376;6.126;2023-05-10T12:24:34;15.97;;;14.37;;
15624;SDS011;7912;51.376;6.126;2023-05-10T12:27:05;16.80;;;15.23;;
15624;SDS011;7912;51.376;6.126;2023-05-10T12:29:34;14.87;;;13.47;;
15624;SDS011;7912;51.376;6.126;2023-05-10T12:32:02;15.67;;;14.17;;
15624;SDS011;7912;51.376;6.126;2023-05-10T12:34:30;15.90;;;14.30;;
15624;SDS011;7912;51.376;6.126;2023-05-10T12:37:00;15.63;;;14.03;;
15624;SDS011;7912;51.376;6.126;2023-05-10T12:39:41;15.23;;;13.77;;
15624;SDS011;7912;51.376;6.126;2023-05-10T12:42:11;15.93;;;14.47;;
15624;SDS011;7912;51.376;6.126;2023-05-10T12:44:38;15.37;;;13.87;;
15624;SDS011;7912;51.376;6.126;2023-05-10T12:47:06;14.70;;;13.27;;
15624;SDS011;7912;51.376;6.126;2023-05-10T12:49:33;14.50;;;13.07;;
15624;SDS011;7912;51.376;6.126;2023-05-10T12:52:01;14.77;;;13.37;;
15624;SDS011;7912;51.376;6.126;2023-05-10T12:54:28;13.67;;;12.37;;
15624;SDS011;7912;51.376;6.126;2023-05-10T12:56:56;12.90;;;11.70;;
15624;SDS011;7912;51.376;6.126;2023-05-10T12:59:23;13.83;;;12.57;;
15624;SDS011;7912;51.376;6.126;2023-05-10T13:01:50;13.53;;;12.33;;
15624;SDS011;7912;51.376;6.126;2023-05-10T13:04:17;14.50;;;13.13;;
15624;SDS011;7912;51.376;6.126;2023-05-10T13:06:44;13.27;;;11.97;;
15624;SDS011;7912;51.376;6.126;2023-05-10T13:09:12;13.23;;;11.60;;
15624;SDS011;7912;51.376;6.126;2023-05-10T13:11:39;12.97;;;11.63;;
15624;SDS011;7912;51.376;6.126;2023-05-10T13:14:07;12.30;;;11.20;;
15624;SDS011;7912;51.376;6.126;2023-05-10T13:16:34;10.90;;;9.90;;
15624;SDS011;7912;51.376;6.126;2023-05-10T13:19:01;10.43;;;9.43;;
15624;SDS011;7912;51.376;6.126;2023-05-10T13:21:29;10.93;;;9.90;;
15624;SDS011;7912;51.376;6.126;2023-05-10T13:23:56;10.50;;;9.60;;
15624;SDS011;7912;51.376;6.126;2023-05-10T13:26:24;10.43;;;9.30;;
15624;SDS011;7912;51.376;6.126;2023-05-10T13:28:51;10.23;;;9.23;;
15624;SDS011;7912;51.376;6.126;2023-05-10T13:31:19;9.87;;;9.00;;
15624;SDS011;7912;51.376;6.126;2023-05-10T13:33:47;9.83;;;8.93;;
15624;SDS011;7912;51.376;6.126;2023-05-10T13:36:14;10.10;;;9.30;;
15624;SDS011;7912;51.376;6.126;2023-05-10T13:38:41;11.67;;;10.67;;
15624;SDS011;7912;51.376;6.126;2023-05-10T13:41:08;11.30;;;10.30;;
15624;SDS011;7912;51.376;6.126;2023-05-10T13:43:36;11.17;;;10.17;;
15624;SDS011;7912;51.376;6.126;2023-05-10T13:46:04;9.80;;;8.90;;
15624;SDS011;7912;51.376;6.126;2023-05-10T13:48:31;9.43;;;8.53;;
15624;SDS011;7912;51.376;6.126;2023-05-10T13:50:58;10.87;;;9.87;;
15624;SDS011;7912;51.376;6.126;2023-05-10T13:53:25;10.30;;;9.40;;
15624;SDS011;7912;51.376;6.126;2023-05-10T13:55:53;10.97;;;9.83;;
15624;SDS011;7912;51.376;6.126;2023-05-10T13:58:20;10.77;;;9.70;;
15624;SDS011;7912;51.376;6.126;2023-05-10T14:00:47;11.40;;;10.20;;
15624;SDS011;7912;51.376;6.126;2023-05-10T14:03:15;11.00;;;10.00;;
15624;SDS011;7912;51.376;6.126;2023-05-10T14:05:43;10.47;;;9.57;;
15624;SDS011;7912;51.376;6.126;2023-05-10T14:08:11;9.60;;;8.63;;
15624;SDS011;7912;51.376;6.126;2023-05-10T14:10:39;9.47;;;8.67;;
15624;SDS011;7912;51.376;6.126;2023-05-10T14:13:06;9.60;;;8.60;;
15624;SDS011;7912;51.376;6.126;2023-05-10T14:15:34;9.43;;;8.53;;
15624;SDS011;7912;51.376;6.126;2023-05-10T14:18:01;8.47;;;7.50;;
15624;SDS011;7912;51.376;6.126;2023-05-10T14:20:29;9.20;;;8.40;;
15624;SDS011;7912;51.376;6.126;2023-05-10T14:22:56;9.70;;;8.70;;
15624;SDS011;7912;51.376;6.126;2023-05-10T14:25:23;9.33;;;8.37;;
15624;SDS011;7912;51.376;6.126;2023-05-10T14:27:51;8.87;;;8.03;;
15624;SDS011;7912;51.376;6.126;2023-05-10T14:30:20;8.87;;;8.07;;
15624;SDS011;7912;51.376;6.126;2023-05-10T14:32:48;8.73;;;7.93;;
15624;SDS011;7912;51.376;6.126;2023-05-10T14:35:15;8.70;;;7.80;;
15624;SDS011;7912;51.376;6.126;2023-05-10T14:37:44;9.17;;;8.27;;
15624;SDS011;7912;51.376;6.126;2023-05-10T14:40:12;10.53;;;9.53;;
15624;SDS011;7912;51.376;6.126;2023-05-10T14:42:42;10.50;;;9.43;;
15624;SDS011;7912;51.376;6.126;2023-05-10T14:45:10;11.83;;;10.73;;
15624;SDS011;7912;51.376;6.126;2023-05-10T14:47:38;11.07;;;10.00;;
15624;SDS011;7912;51.376;6.126;2023-05-10T14:50:05;10.37;;;9.13;;
15624;SDS011;7912;51.376;6.126;2023-05-10T14:52:41;10.43;;;9.40;;
15624;SDS011;7912;51.376;6.126;2023-05-10T14:55:09;9.50;;;8.60;;
15624;SDS011;7912;51.376;6.126;2023-05-10T14:57:38;9.93;;;9.03;;
15624;SDS011;7912;51.376;6.126;2023-05-10T15:00:06;11.17;;;10.07;;
15624;SDS011;7912;51.376;6.126;2023-05-10T15:02:34;12.23;;;10.93;;
15624;SDS011;7912;51.376;6.126;2023-05-10T15:05:03;14.43;;;11.90;;
15624;SDS011;7912;51.376;6.126;2023-05-10T15:07:33;15.97;;;11.30;;
15624;SDS011;7912;51.376;6.126;2023-05-10T15:10:01;14.20;;;11.03;;
15624;SDS011;7912;51.376;6.126;2023-05-10T15:12:29;10.57;;;9.50;;
15624;SDS011;7912;51.376;6.126;2023-05-10T15:14:56;11.53;;;10.37;;
15624;SDS011;7912;51.376;6.126;2023-05-10T15:17:23;11.60;;;10.07;;
15624;SDS011;7912;51.376;6.126;2023-05-10T15:19:51;12.70;;;11.40;;
15624;SDS011;7912;51.376;6.126;2023-05-10T15:22:18;13.00;;;11.70;;
15624;SDS011;7912;51.376;6.126;2023-05-10T15:24:46;12.17;;;10.07;;
15624;SDS011;7912;51.376;6.126;2023-05-10T15:27:13;12.37;;;11.07;;
15624;SDS011;7912;51.376;6.126;2023-05-10T15:29:40;13.10;;;11.83;;
15624;SDS011;7912;51.376;6.126;2023-05-10T15:32:08;10.83;;;9.87;;
15624;SDS011;7912;51.376;6.126;2023-05-10T15:34:35;11.83;;;10.63;;
15624;SDS011;7912;51.376;6.126;2023-05-10T15:37:02;13.60;;;12.20;;
15624;SDS011;7912;51.376;6.126;2023-05-10T15:39:30;12.60;;;11.40;;
15624;SDS011;7912;51.376;6.126;2023-05-10T15:41:57;12.13;;;11.03;;
15624;SDS011;7912;51.376;6.126;2023-05-10T15:44:24;13.97;;;12.50;;
15624;SDS011;7912;51.376;6.126;2023-05-10T15:46:52;13.30;;;12.00;;
15624;SDS011;7912;51.376;6.126;2023-05-10T15:49:19;14.33;;;13.00;;
15624;SDS011;7912;51.376;6.126;2023-05-10T15:51:52;13.13;;;11.73;;
15624;SDS011;7912;51.376;6.126;2023-05-10T15:54:20;11.33;;;10.30;;
15624;SDS011;7912;51.376;6.126;2023-05-10T15:56:48;12.47;;;11.27;;
15624;SDS011;7912;51.376;6.126;2023-05-10T15:59:15;13.70;;;12.30;;
15624;SDS011;7912;51.376;6.126;2023-05-10T16:01:42;12.87;;;11.57;;
15624;SDS011;7912;51.376;6.126;2023-05-10T16:04:10;11.87;;;10.67;;
15624;SDS011;7912;51.376;6.126;2023-05-10T16:06:38;13.63;;;12.17;;
15624;SDS011;7912;51.376;6.126;2023-05-10T16:09:05;13.10;;;11.87;;
15624;SDS011;7912;51.376;6.126;2023-05-10T16:11:35;13.70;;;12.40;;
15624;SDS011;7912;51.376;6.126;2023-05-10T16:14:02;12.77;;;11.47;;
15624;SDS011;7912;51.376;6.126;2023-05-10T16:16:32;12.60;;;11.40;;
15624;SDS011;7912;51.376;6.126;2023-05-10T16:19:00;13.73;;;12.30;;
15624;SDS011;7912;51.376;6.126;2023-05-10T16:21:29;12.40;;;11.10;;
15624;SDS011;7912;51.376;6.126;2023-05-10T16:23:58;14.47;;;13.10;;
15624;SDS011;7912;51.376;6.126;2023-05-10T16:29:38;11.17;;;10.17;;
15624;SDS011;7912;51.376;6.126;2023-05-10T16:32:05;10.83;;;9.83;;
15624;SDS011;7912;51.376;6.126;2023-05-10T16:34:32;11.57;;;10.47;;
15624;SDS011;7912;51.376;6.126;2023-05-10T16:37:00;9.50;;;8.60;;
15624;SDS011;7912;51.376;6.126;2023-05-10T16:42:36;8.37;;;7.67;;
15624;SDS011;7912;51.376;6.126;2023-05-10T16:45:04;8.47;;;7.53;;
15624;SDS011;7912;51.376;6.126;2023-05-10T16:47:36;7.50;;;6.80;;
15624;SDS011;7912;51.376;6.126;2023-05-10T16:50:06;6.17;;;5.67;;
15624;SDS011;7912;51.376;6.126;2023-05-10T16:52:34;7.23;;;6.53;;
15624;SDS011;7912;51.376;6.126;2023-05-10T16:55:02;6.10;;;5.60;;
15624;SDS011;7912;51.376;6.126;2023-05-10T16:57:30;6.83;;;5.83;;
15624;SDS011;7912;51.376;6.126;2023-05-10T16:59:58;5.60;;;5.13;;
15624;SDS011;7912;51.376;6.126;2023-05-10T17:02:26;4.93;;;4.53;;
15624;SDS011;7912;51.376;6.126;2023-05-10T17:04:53;4.10;;;3.70;;
15624;SDS011;7912;51.376;6.126;2023-05-10T17:07:21;3.77;;;3.47;;
15624;SDS011;7912;51.376;6.126;2023-05-10T17:09:51;3.63;;;3.33;;
15624;SDS011;7912;51.376;6.126;2023-05-10T17:12:18;4.03;;;3.13;;
15624;SDS011;7912;51.376;6.126;2023-05-10T17:17:33;3.27;;;2.70;;
15624;SDS011;7912;51.376;6.126;2023-05-10T17:20:02;2.50;;;2.30;;
15624;SDS011;7912;51.376;6.126;2023-05-10T17:25:16;2.70;;;2.50;;